sensor_id;sensor_type;location;lat;lon;timestamp;P1;durP1;ratioP1;P2;durP2;ratioP2
75496;SDS011;64074;47.540;19.072;2023-02-04T00:00:12;4.67;;;0.80;;
75496;SDS011;64074;47.540;19.072;2023-02-04T00:03:19;6.57;;;1.50;;
75496;SDS011;64074;47.540;19.072;2023-02-04T00:06:21;5.53;;;1.40;;
75496;SDS011;64074;47.540;19.072;2023-02-04T00:09:25;5.22;;;1.42;;
75496;SDS011;64074;47.540;19.072;2023-02-04T00:12:28;5.47;;;1.55;;
75496;SDS011;64074;47.540;19.072;2023-02-04T00:15:31;5.23;;;1.40;;
75496;SDS011;64074;47.540;19.072;2023-02-04T00:18:34;6.87;;;1.30;;
75496;SDS011;64074;47.540;19.072;2023-02-04T00:21:36;6.80;;;1.30;;
75496;SDS011;64074;47.540;19.072;2023-02-04T00:24:40;7.28;;;1.67;;
75496;SDS011;64074;47.540;19.072;2023-02-04T00:27:44;7.40;;;1.80;;
75496;SDS011;64074;47.540;19.072;2023-02-04T00:30:47;7.67;;;1.60;;
75496;SDS011;64074;47.540;19.072;2023-02-04T00:33:50;7.00;;;1.60;;
75496;SDS011;64074;47.540;19.072;2023-02-04T00:36:55;7.07;;;1.65;;
75496;SDS011;64074;47.540;19.072;2023-02-04T00:39:57;5.43;;;1.58;;
75496;SDS011;64074;47.540;19.072;2023-02-04T00:43:00;8.32;;;2.00;;
75496;SDS011;64074;47.540;19.072;2023-02-04T00:46:04;6.20;;;2.03;;
75496;SDS011;64074;47.540;19.072;2023-02-04T00:49:07;8.27;;;1.63;;
75496;SDS011;64074;47.540;19.072;2023-02-04T00:52:11;4.20;;;1.27;;
75496;SDS011;64074;47.540;19.072;2023-02-04T00:55:16;5.72;;;2.00;;
75496;SDS011;64074;47.540;19.072;2023-02-04T00:58:20;6.10;;;1.73;;
75496;SDS011;64074;47.540;19.072;2023-02-04T01:01:22;9.00;;;1.70;;
75496;SDS011;64074;47.540;19.072;2023-02-04T01:04:26;8.07;;;1.70;;
75496;SDS011;64074;47.540;19.072;2023-02-04T01:07:30;6.60;;;1.70;;
75496;SDS011;64074;47.540;19.072;2023-02-04T01:10:33;6.85;;;1.80;;
75496;SDS011;64074;47.540;19.072;2023-02-04T01:13:36;3.70;;;1.58;;
75496;SDS011;64074;47.540;19.072;2023-02-04T01:16:39;7.97;;;1.90;;
75496;SDS011;64074;47.540;19.072;2023-02-04T01:19:43;5.97;;;1.70;;
75496;SDS011;64074;47.540;19.072;2023-02-04T01:22:46;5.70;;;1.30;;
75496;SDS011;64074;47.540;19.072;2023-02-04T01:25:49;5.85;;;1.60;;
75496;SDS011;64074;47.540;19.072;2023-02-04T01:28:52;4.35;;;1.55;;
75496;SDS011;64074;47.540;19.072;2023-02-04T01:31:54;5.73;;;1.77;;
75496;SDS011;64074;47.540;19.072;2023-02-04T01:34:57;5.37;;;1.40;;
75496;SDS011;64074;47.540;19.072;2023-02-04T01:38:01;7.70;;;1.70;;
75496;SDS011;64074;47.540;19.072;2023-02-04T01:41:04;6.30;;;1.40;;
75496;SDS011;64074;47.540;19.072;2023-02-04T01:44:07;5.45;;;1.35;;
75496;SDS011;64074;47.540;19.072;2023-02-04T01:47:10;6.70;;;1.43;;
75496;SDS011;64074;47.540;19.072;2023-02-04T01:50:14;6.03;;;1.40;;
75496;SDS011;64074;47.540;19.072;2023-02-04T01:53:19;4.80;;;1.35;;
75496;SDS011;64074;47.540;19.072;2023-02-04T01:56:24;4.93;;;1.30;;
75496;SDS011;64074;47.540;19.072;2023-02-04T01:59:29;3.90;;;1.20;;
75496;SDS011;64074;47.540;19.072;2023-02-04T02:02:36;5.37;;;0.80;;
75496;SDS011;64074;47.540;19.072;2023-02-04T02:05:49;6.93;;;1.10;;
75496;SDS011;64074;47.540;19.072;2023-02-04T02:08:54;8.27;;;1.58;;
75496;SDS011;64074;47.540;19.072;2023-02-04T02:11:58;7.22;;;1.27;;
75496;SDS011;64074;47.540;19.072;2023-02-04T02:15:04;4.88;;;1.10;;
75496;SDS011;64074;47.540;19.072;2023-02-04T02:18:09;7.00;;;1.33;;
75496;SDS011;64074;47.540;19.072;2023-02-04T02:21:13;6.87;;;1.37;;
75496;SDS011;64074;47.540;19.072;2023-02-04T02:24:30;5.28;;;0.90;;
75496;SDS011;64074;47.540;19.072;2023-02-04T02:27:36;7.20;;;1.50;;
75496;SDS011;64074;47.540;19.072;2023-02-04T02:30:39;5.03;;;1.25;;
75496;SDS011;64074;47.540;19.072;2023-02-04T02:33:44;5.30;;;1.10;;
75496;SDS011;64074;47.540;19.072;2023-02-04T02:36:47;7.80;;;1.60;;
75496;SDS011;64074;47.540;19.072;2023-02-04T02:39:50;5.18;;;1.30;;
75496;SDS011;64074;47.540;19.072;2023-02-04T02:42:55;5.97;;;1.42;;
75496;SDS011;64074;47.540;19.072;2023-02-04T02:45:58;3.63;;;0.90;;
75496;SDS011;64074;47.540;19.072;2023-02-04T02:49:02;7.40;;;1.43;;
75496;SDS011;64074;47.540;19.072;2023-02-04T02:52:08;5.77;;;1.00;;
75496;SDS011;64074;47.540;19.072;2023-02-04T02:55:14;5.35;;;1.10;;
75496;SDS011;64074;47.540;19.072;2023-02-04T02:58:23;7.32;;;1.33;;
75496;SDS011;64074;47.540;19.072;2023-02-04T03:01:28;6.78;;;0.85;;
75496;SDS011;64074;47.540;19.072;2023-02-04T03:04:33;4.77;;;1.03;;
75496;SDS011;64074;47.540;19.072;2023-02-04T03:07:40;4.77;;;0.80;;
75496;SDS011;64074;47.540;19.072;2023-02-04T03:10:44;2.67;;;0.80;;
75496;SDS011;64074;47.540;19.072;2023-02-04T03:13:48;4.72;;;0.73;;
75496;SDS011;64074;47.540;19.072;2023-02-04T03:16:52;3.20;;;0.80;;
75496;SDS011;64074;47.540;19.072;2023-02-04T03:19:57;8.27;;;1.20;;
75496;SDS011;64074;47.540;19.072;2023-02-04T03:23:00;5.33;;;1.00;;
75496;SDS011;64074;47.540;19.072;2023-02-04T03:26:04;3.22;;;0.73;;
75496;SDS011;64074;47.540;19.072;2023-02-04T03:29:08;4.40;;;0.90;;
75496;SDS011;64074;47.540;19.072;2023-02-04T03:32:12;4.28;;;0.68;;
75496;SDS011;64074;47.540;19.072;2023-02-04T03:35:15;4.00;;;0.80;;
75496;SDS011;64074;47.540;19.072;2023-02-04T03:38:19;3.63;;;0.90;;
75496;SDS011;64074;47.540;19.072;2023-02-04T03:41:23;4.68;;;0.90;;
75496;SDS011;64074;47.540;19.072;2023-02-04T03:44:26;4.30;;;0.60;;
75496;SDS011;64074;47.540;19.072;2023-02-04T03:47:30;2.58;;;0.43;;
75496;SDS011;64074;47.540;19.072;2023-02-04T03:50:34;4.00;;;0.77;;
75496;SDS011;64074;47.540;19.072;2023-02-04T03:53:38;2.27;;;0.53;;
75496;SDS011;64074;47.540;19.072;2023-02-04T03:56:41;5.47;;;0.80;;
75496;SDS011;64074;47.540;19.072;2023-02-04T03:59:44;4.88;;;0.50;;
75496;SDS011;64074;47.540;19.072;2023-02-04T04:02:47;8.25;;;0.98;;
75496;SDS011;64074;47.540;19.072;2023-02-04T04:05:50;4.03;;;0.57;;
75496;SDS011;64074;47.540;19.072;2023-02-04T04:08:54;3.50;;;0.70;;
75496;SDS011;64074;47.540;19.072;2023-02-04T04:11:57;5.32;;;1.23;;
75496;SDS011;64074;47.540;19.072;2023-02-04T04:14:59;3.92;;;0.88;;
75496;SDS011;64074;47.540;19.072;2023-02-04T04:18:02;4.20;;;0.50;;
75496;SDS011;64074;47.540;19.072;2023-02-04T04:21:06;4.50;;;0.50;;
75496;SDS011;64074;47.540;19.072;2023-02-04T04:24:09;2.67;;;0.50;;
75496;SDS011;64074;47.540;19.072;2023-02-04T04:27:12;4.82;;;0.68;;
75496;SDS011;64074;47.540;19.072;2023-02-04T04:30:15;2.75;;;0.50;;
75496;SDS011;64074;47.540;19.072;2023-02-04T04:33:18;4.68;;;1.08;;
75496;SDS011;64074;47.540;19.072;2023-02-04T04:36:20;4.60;;;0.80;;
75496;SDS011;64074;47.540;19.072;2023-02-04T04:39:23;6.43;;;0.80;;
75496;SDS011;64074;47.540;19.072;2023-02-04T04:42:26;2.03;;;0.40;;
75496;SDS011;64074;47.540;19.072;2023-02-04T04:45:29;2.75;;;0.50;;
75496;SDS011;64074;47.540;19.072;2023-02-04T04:48:32;5.25;;;0.80;;
75496;SDS011;64074;47.540;19.072;2023-02-04T04:51:36;3.70;;;0.60;;
75496;SDS011;64074;47.540;19.072;2023-02-04T04:54:39;4.23;;;0.90;;
75496;SDS011;64074;47.540;19.072;2023-02-04T04:57:42;4.70;;;0.50;;
75496;SDS011;64074;47.540;19.072;2023-02-04T05:00:45;4.45;;;0.60;;
75496;SDS011;64074;47.540;19.072;2023-02-04T05:03:49;3.88;;;0.75;;
75496;SDS011;64074;47.540;19.072;2023-02-04T05:06:51;8.03;;;0.70;;
75496;SDS011;64074;47.540;19.072;2023-02-04T05:09:54;5.67;;;0.43;;
75496;SDS011;64074;47.540;19.072;2023-02-04T05:12:57;3.72;;;0.60;;
75496;SDS011;64074;47.540;19.072;2023-02-04T05:16:01;3.25;;;0.50;;
75496;SDS011;64074;47.540;19.072;2023-02-04T05:19:03;6.28;;;0.50;;
75496;SDS011;64074;47.540;19.072;2023-02-04T05:22:06;2.67;;;0.50;;
75496;SDS011;64074;47.540;19.072;2023-02-04T05:25:08;4.13;;;0.70;;
75496;SDS011;64074;47.540;19.072;2023-02-04T05:28:12;4.07;;;0.45;;
75496;SDS011;64074;47.540;19.072;2023-02-04T05:31:18;3.47;;;0.65;;
75496;SDS011;64074;47.540;19.072;2023-02-04T05:34:21;1.98;;;0.20;;
75496;SDS011;64074;47.540;19.072;2023-02-04T05:37:25;2.40;;;0.40;;
75496;SDS011;64074;47.540;19.072;2023-02-04T05:40:28;1.20;;;0.27;;
75496;SDS011;64074;47.540;19.072;2023-02-04T05:43:31;1.85;;;0.50;;
75496;SDS011;64074;47.540;19.072;2023-02-04T05:46:34;2.03;;;0.50;;
75496;SDS011;64074;47.540;19.072;2023-02-04T05:49:37;3.47;;;0.70;;
75496;SDS011;64074;47.540;19.072;2023-02-04T05:52:41;1.60;;;0.47;;
75496;SDS011;64074;47.540;19.072;2023-02-04T05:55:45;2.47;;;0.37;;
75496;SDS011;64074;47.540;19.072;2023-02-04T05:58:48;1.67;;;0.30;;
75496;SDS011;64074;47.540;19.072;2023-02-04T06:01:52;1.65;;;0.40;;
75496;SDS011;64074;47.540;19.072;2023-02-04T06:04:55;1.77;;;0.50;;
75496;SDS011;64074;47.540;19.072;2023-02-04T06:07:58;1.90;;;0.40;;
75496;SDS011;64074;47.540;19.072;2023-02-04T06:11:02;0.83;;;0.30;;
75496;SDS011;64074;47.540;19.072;2023-02-04T06:14:05;1.63;;;0.35;;
75496;SDS011;64074;47.540;19.072;2023-02-04T06:17:09;1.67;;;0.43;;
75496;SDS011;64074;47.540;19.072;2023-02-04T06:20:12;1.08;;;0.32;;
75496;SDS011;64074;47.540;19.072;2023-02-04T06:23:16;0.77;;;0.23;;
75496;SDS011;64074;47.540;19.072;2023-02-04T06:26:19;1.23;;;0.20;;
75496;SDS011;64074;47.540;19.072;2023-02-04T06:29:21;0.70;;;0.17;;
75496;SDS011;64074;47.540;19.072;2023-02-04T06:32:24;1.48;;;0.13;;
75496;SDS011;64074;47.540;19.072;2023-02-04T06:35:27;1.15;;;0.10;;
75496;SDS011;64074;47.540;19.072;2023-02-04T06:38:31;0.50;;;0.20;;
75496;SDS011;64074;47.540;19.072;2023-02-04T06:41:33;0.57;;;0.20;;
75496;SDS011;64074;47.540;19.072;2023-02-04T06:44:37;0.60;;;0.13;;
75496;SDS011;64074;47.540;19.072;2023-02-04T06:47:39;0.40;;;0.10;;
75496;SDS011;64074;47.540;19.072;2023-02-04T06:50:43;0.70;;;0.20;;
75496;SDS011;64074;47.540;19.072;2023-02-04T06:53:46;0.83;;;0.40;;
75496;SDS011;64074;47.540;19.072;2023-02-04T06:56:49;1.57;;;0.40;;
75496;SDS011;64074;47.540;19.072;2023-02-04T06:59:51;0.68;;;0.20;;
75496;SDS011;64074;47.540;19.072;2023-02-04T07:02:54;0.40;;;0.25;;
75496;SDS011;64074;47.540;19.072;2023-02-04T07:05:58;1.15;;;0.47;;
75496;SDS011;64074;47.540;19.072;2023-02-04T07:09:03;0.97;;;0.50;;
75496;SDS011;64074;47.540;19.072;2023-02-04T07:12:06;2.27;;;0.60;;
75496;SDS011;64074;47.540;19.072;2023-02-04T07:15:09;0.80;;;0.52;;
75496;SDS011;64074;47.540;19.072;2023-02-04T07:18:11;0.85;;;0.50;;
75496;SDS011;64074;47.540;19.072;2023-02-04T07:21:16;2.05;;;0.60;;
75496;SDS011;64074;47.540;19.072;2023-02-04T07:24:19;2.50;;;0.80;;
75496;SDS011;64074;47.540;19.072;2023-02-04T07:27:22;1.13;;;0.63;;
75496;SDS011;64074;47.540;19.072;2023-02-04T07:30:26;2.03;;;1.00;;
75496;SDS011;64074;47.540;19.072;2023-02-04T07:33:29;2.42;;;1.40;;
75496;SDS011;64074;47.540;19.072;2023-02-04T07:36:33;3.35;;;1.20;;
75496;SDS011;64074;47.540;19.072;2023-02-04T07:39:36;2.20;;;1.47;;
75496;SDS011;64074;47.540;19.072;2023-02-04T07:42:39;3.00;;;1.70;;
75496;SDS011;64074;47.540;19.072;2023-02-04T07:45:47;4.50;;;1.50;;
75496;SDS011;64074;47.540;19.072;2023-02-04T07:48:50;4.47;;;2.00;;
75496;SDS011;64074;47.540;19.072;2023-02-04T07:51:54;5.05;;;2.47;;
75496;SDS011;64074;47.540;19.072;2023-02-04T07:54:57;3.70;;;2.60;;
75496;SDS011;64074;47.540;19.072;2023-02-04T07:58:00;5.27;;;2.50;;
75496;SDS011;64074;47.540;19.072;2023-02-04T08:01:04;5.55;;;3.15;;
75496;SDS011;64074;47.540;19.072;2023-02-04T08:04:06;6.07;;;2.75;;
75496;SDS011;64074;47.540;19.072;2023-02-04T08:07:09;5.00;;;3.17;;
75496;SDS011;64074;47.540;19.072;2023-02-04T08:10:13;5.67;;;2.70;;
75496;SDS011;64074;47.540;19.072;2023-02-04T08:13:16;5.23;;;2.70;;
75496;SDS011;64074;47.540;19.072;2023-02-04T08:16:19;7.75;;;3.20;;
75496;SDS011;64074;47.540;19.072;2023-02-04T08:19:26;5.13;;;3.17;;
75496;SDS011;64074;47.540;19.072;2023-02-04T08:22:29;6.68;;;3.50;;
75496;SDS011;64074;47.540;19.072;2023-02-04T08:25:32;4.37;;;2.50;;
75496;SDS011;64074;47.540;19.072;2023-02-04T08:28:36;6.63;;;3.57;;
75496;SDS011;64074;47.540;19.072;2023-02-04T08:31:39;5.70;;;3.15;;
75496;SDS011;64074;47.540;19.072;2023-02-04T08:34:43;5.80;;;3.13;;
75496;SDS011;64074;47.540;19.072;2023-02-04T08:37:46;7.75;;;3.05;;
75496;SDS011;64074;47.540;19.072;2023-02-04T08:40:49;8.20;;;3.17;;
75496;SDS011;64074;47.540;19.072;2023-02-04T08:43:53;6.03;;;3.10;;
75496;SDS011;64074;47.540;19.072;2023-02-04T08:46:55;3.97;;;2.60;;
75496;SDS011;64074;47.540;19.072;2023-02-04T08:49:59;3.92;;;2.85;;
75496;SDS011;64074;47.540;19.072;2023-02-04T08:53:02;5.78;;;3.10;;
75496;SDS011;64074;47.540;19.072;2023-02-04T08:56:05;5.53;;;2.90;;
75496;SDS011;64074;47.540;19.072;2023-02-04T08:59:10;6.77;;;3.00;;
75496;SDS011;64074;47.540;19.072;2023-02-04T09:02:13;5.05;;;2.53;;
75496;SDS011;64074;47.540;19.072;2023-02-04T09:05:16;5.65;;;2.33;;
75496;SDS011;64074;47.540;19.072;2023-02-04T09:08:19;4.70;;;2.30;;
75496;SDS011;64074;47.540;19.072;2023-02-04T09:11:23;3.57;;;2.13;;
75496;SDS011;64074;47.540;19.072;2023-02-04T09:14:26;3.10;;;1.90;;
75496;SDS011;64074;47.540;19.072;2023-02-04T09:17:30;4.40;;;2.20;;
75496;SDS011;64074;47.540;19.072;2023-02-04T09:20:32;3.88;;;2.20;;
75496;SDS011;64074;47.540;19.072;2023-02-04T09:23:38;2.50;;;1.83;;
75496;SDS011;64074;47.540;19.072;2023-02-04T09:26:41;3.50;;;1.40;;
75496;SDS011;64074;47.540;19.072;2023-02-04T09:29:44;3.37;;;1.80;;
75496;SDS011;64074;47.540;19.072;2023-02-04T09:32:46;4.68;;;1.48;;
75496;SDS011;64074;47.540;19.072;2023-02-04T09:35:50;2.70;;;1.25;;
75496;SDS011;64074;47.540;19.072;2023-02-04T09:38:54;2.38;;;1.20;;
75496;SDS011;64074;47.540;19.072;2023-02-04T09:41:57;2.97;;;1.13;;
75496;SDS011;64074;47.540;19.072;2023-02-04T09:45:00;2.07;;;1.07;;
75496;SDS011;64074;47.540;19.072;2023-02-04T09:48:05;2.83;;;1.27;;
75496;SDS011;64074;47.540;19.072;2023-02-04T09:51:12;2.83;;;1.25;;
75496;SDS011;64074;47.540;19.072;2023-02-04T09:54:21;1.80;;;0.80;;
75496;SDS011;64074;47.540;19.072;2023-02-04T09:57:26;1.77;;;0.87;;
75496;SDS011;64074;47.540;19.072;2023-02-04T10:00:29;1.63;;;0.93;;
75496;SDS011;64074;47.540;19.072;2023-02-04T10:03:34;1.67;;;0.90;;
75496;SDS011;64074;47.540;19.072;2023-02-04T10:06:38;1.30;;;0.90;;
75496;SDS011;64074;47.540;19.072;2023-02-04T10:09:41;2.00;;;1.10;;
75496;SDS011;64074;47.540;19.072;2023-02-04T10:12:44;1.60;;;0.90;;
75496;SDS011;64074;47.540;19.072;2023-02-04T10:15:48;2.80;;;1.37;;
75496;SDS011;64074;47.540;19.072;2023-02-04T10:18:52;2.22;;;0.90;;
75496;SDS011;64074;47.540;19.072;2023-02-04T10:21:56;1.23;;;0.80;;
75496;SDS011;64074;47.540;19.072;2023-02-04T10:25:00;0.95;;;0.70;;
75496;SDS011;64074;47.540;19.072;2023-02-04T10:28:03;1.83;;;1.03;;
75496;SDS011;64074;47.540;19.072;2023-02-04T10:31:10;1.27;;;0.63;;
75496;SDS011;64074;47.540;19.072;2023-02-04T10:34:34;3.60;;;1.23;;
75496;SDS011;64074;47.540;19.072;2023-02-04T10:37:40;2.10;;;0.60;;
75496;SDS011;64074;47.540;19.072;2023-02-04T10:40:43;3.40;;;1.42;;
75496;SDS011;64074;47.540;19.072;2023-02-04T10:43:47;2.70;;;1.20;;
75496;SDS011;64074;47.540;19.072;2023-02-04T10:47:05;1.73;;;0.90;;
75496;SDS011;64074;47.540;19.072;2023-02-04T10:50:16;2.10;;;0.80;;
75496;SDS011;64074;47.540;19.072;2023-02-04T10:53:21;1.77;;;0.73;;
75496;SDS011;64074;47.540;19.072;2023-02-04T10:56:43;1.55;;;0.65;;
75496;SDS011;64074;47.540;19.072;2023-02-04T10:59:50;1.13;;;0.60;;
75496;SDS011;64074;47.540;19.072;2023-02-04T11:02:58;2.33;;;0.70;;
75496;SDS011;64074;47.540;19.072;2023-02-04T11:06:09;1.58;;;0.90;;
75496;SDS011;64074;47.540;19.072;2023-02-04T11:09:15;2.58;;;0.70;;
75496;SDS011;64074;47.540;19.072;2023-02-04T11:12:22;1.80;;;0.85;;
75496;SDS011;64074;47.540;19.072;2023-02-04T11:15:45;1.57;;;0.60;;
75496;SDS011;64074;47.540;19.072;2023-02-04T11:19:00;1.47;;;0.73;;
75496;SDS011;64074;47.540;19.072;2023-02-04T11:22:22;2.03;;;0.80;;
75496;SDS011;64074;47.540;19.072;2023-02-04T11:25:37;2.03;;;0.70;;
75496;SDS011;64074;47.540;19.072;2023-02-04T11:28:46;1.30;;;0.35;;
75496;SDS011;64074;47.540;19.072;2023-02-04T11:34:53;2.97;;;0.90;;
75496;SDS011;64074;47.540;19.072;2023-02-04T11:37:58;1.38;;;0.80;;
75496;SDS011;64074;47.540;19.072;2023-02-04T11:41:02;1.55;;;0.80;;
75496;SDS011;64074;47.540;19.072;2023-02-04T11:44:06;2.08;;;0.73;;
75496;SDS011;64074;47.540;19.072;2023-02-04T11:47:12;0.93;;;0.40;;
75496;SDS011;64074;47.540;19.072;2023-02-04T11:53:23;1.48;;;0.60;;
75496;SDS011;64074;47.540;19.072;2023-02-04T11:56:31;1.13;;;0.63;;
75496;SDS011;64074;47.540;19.072;2023-02-04T11:59:34;1.58;;;0.60;;
75496;SDS011;64074;47.540;19.072;2023-02-04T12:02:48;1.77;;;0.80;;
75496;SDS011;64074;47.540;19.072;2023-02-04T12:05:56;0.90;;;0.50;;
75496;SDS011;64074;47.540;19.072;2023-02-04T12:09:04;2.92;;;0.60;;
75496;SDS011;64074;47.540;19.072;2023-02-04T12:12:09;0.70;;;0.50;;
75496;SDS011;64074;47.540;19.072;2023-02-04T12:15:16;1.73;;;0.50;;
75496;SDS011;64074;47.540;19.072;2023-02-04T12:18:25;1.03;;;0.60;;
75496;SDS011;64074;47.540;19.072;2023-02-04T12:21:32;1.47;;;0.57;;
75496;SDS011;64074;47.540;19.072;2023-02-04T12:24:34;1.95;;;0.63;;
75496;SDS011;64074;47.540;19.072;2023-02-04T12:27:38;1.55;;;0.60;;
75496;SDS011;64074;47.540;19.072;2023-02-04T12:30:41;1.75;;;0.88;;
75496;SDS011;64074;47.540;19.072;2023-02-04T12:33:44;1.37;;;0.83;;
75496;SDS011;64074;47.540;19.072;2023-02-04T12:36:47;3.50;;;1.03;;
75496;SDS011;64074;47.540;19.072;2023-02-04T12:39:51;1.50;;;1.05;;
75496;SDS011;64074;47.540;19.072;2023-02-04T12:42:53;2.00;;;0.88;;
75496;SDS011;64074;47.540;19.072;2023-02-04T12:45:57;1.30;;;0.68;;
75496;SDS011;64074;47.540;19.072;2023-02-04T12:48:59;2.23;;;1.60;;
75496;SDS011;64074;47.540;19.072;2023-02-04T12:52:03;3.13;;;1.27;;
75496;SDS011;64074;47.540;19.072;2023-02-04T12:55:07;1.95;;;0.95;;
75496;SDS011;64074;47.540;19.072;2023-02-04T12:58:10;1.92;;;1.05;;
75496;SDS011;64074;47.540;19.072;2023-02-04T13:01:14;2.33;;;0.90;;
75496;SDS011;64074;47.540;19.072;2023-02-04T13:04:17;2.20;;;1.27;;
75496;SDS011;64074;47.540;19.072;2023-02-04T13:07:20;2.10;;;1.33;;
75496;SDS011;64074;47.540;19.072;2023-02-04T13:10:25;2.50;;;0.90;;
75496;SDS011;64074;47.540;19.072;2023-02-04T13:13:28;1.73;;;0.63;;
75496;SDS011;64074;47.540;19.072;2023-02-04T13:16:31;1.70;;;0.60;;
75496;SDS011;64074;47.540;19.072;2023-02-04T13:19:37;2.73;;;0.90;;
75496;SDS011;64074;47.540;19.072;2023-02-04T13:22:43;1.77;;;0.73;;
75496;SDS011;64074;47.540;19.072;2023-02-04T13:25:47;1.20;;;0.70;;
75496;SDS011;64074;47.540;19.072;2023-02-04T13:28:51;1.92;;;0.80;;
75496;SDS011;64074;47.540;19.072;2023-02-04T13:31:54;1.83;;;0.95;;
75496;SDS011;64074;47.540;19.072;2023-02-04T13:34:58;1.83;;;1.10;;
75496;SDS011;64074;47.540;19.072;2023-02-04T13:38:00;2.40;;;1.10;;
75496;SDS011;64074;47.540;19.072;2023-02-04T13:41:04;2.60;;;1.17;;
75496;SDS011;64074;47.540;19.072;2023-02-04T13:44:06;3.60;;;1.00;;
75496;SDS011;64074;47.540;19.072;2023-02-04T13:47:10;3.25;;;1.33;;
75496;SDS011;64074;47.540;19.072;2023-02-04T13:50:15;3.53;;;1.43;;
75496;SDS011;64074;47.540;19.072;2023-02-04T13:53:17;3.37;;;1.47;;
75496;SDS011;64074;47.540;19.072;2023-02-04T13:56:20;2.13;;;0.80;;
75496;SDS011;64074;47.540;19.072;2023-02-04T13:59:24;2.97;;;1.15;;
75496;SDS011;64074;47.540;19.072;2023-02-04T14:02:27;4.47;;;1.15;;
75496;SDS011;64074;47.540;19.072;2023-02-04T14:05:31;1.83;;;0.90;;
75496;SDS011;64074;47.540;19.072;2023-02-04T14:08:34;1.83;;;0.73;;
75496;SDS011;64074;47.540;19.072;2023-02-04T14:11:38;4.68;;;1.33;;
75496;SDS011;64074;47.540;19.072;2023-02-04T14:14:42;3.15;;;1.30;;
75496;SDS011;64074;47.540;19.072;2023-02-04T14:17:44;3.42;;;1.23;;
75496;SDS011;64074;47.540;19.072;2023-02-04T14:20:48;3.30;;;1.40;;
75496;SDS011;64074;47.540;19.072;2023-02-04T14:23:50;2.80;;;1.30;;
75496;SDS011;64074;47.540;19.072;2023-02-04T14:26:53;3.70;;;1.60;;
75496;SDS011;64074;47.540;19.072;2023-02-04T14:29:57;3.33;;;1.05;;
75496;SDS011;64074;47.540;19.072;2023-02-04T14:33:00;4.45;;;1.60;;
75496;SDS011;64074;47.540;19.072;2023-02-04T14:36:03;3.60;;;1.73;;
75496;SDS011;64074;47.540;19.072;2023-02-04T14:39:06;2.73;;;1.30;;
75496;SDS011;64074;47.540;19.072;2023-02-04T14:42:09;5.65;;;1.90;;
75496;SDS011;64074;47.540;19.072;2023-02-04T14:45:13;3.88;;;1.92;;
75496;SDS011;64074;47.540;19.072;2023-02-04T14:48:17;4.15;;;2.00;;
75496;SDS011;64074;47.540;19.072;2023-02-04T14:51:21;5.17;;;2.20;;
75496;SDS011;64074;47.540;19.072;2023-02-04T14:54:24;3.67;;;1.60;;
75496;SDS011;64074;47.540;19.072;2023-02-04T14:57:27;3.03;;;1.75;;
75496;SDS011;64074;47.540;19.072;2023-02-04T15:00:30;4.03;;;1.80;;
75496;SDS011;64074;47.540;19.072;2023-02-04T15:03:34;3.85;;;1.77;;
75496;SDS011;64074;47.540;19.072;2023-02-04T15:06:37;3.53;;;1.73;;
75496;SDS011;64074;47.540;19.072;2023-02-04T15:09:41;3.13;;;1.67;;
75496;SDS011;64074;47.540;19.072;2023-02-04T15:12:46;5.28;;;2.38;;
75496;SDS011;64074;47.540;19.072;2023-02-04T15:15:49;3.95;;;1.88;;
75496;SDS011;64074;47.540;19.072;2023-02-04T15:18:54;3.58;;;1.67;;
75496;SDS011;64074;47.540;19.072;2023-02-04T15:21:57;5.03;;;1.83;;
75496;SDS011;64074;47.540;19.072;2023-02-04T15:25:01;9.90;;;3.73;;
75496;SDS011;64074;47.540;19.072;2023-02-04T15:28:05;15.35;;;5.70;;
75496;SDS011;64074;47.540;19.072;2023-02-04T15:31:09;8.13;;;2.40;;
75496;SDS011;64074;47.540;19.072;2023-02-04T15:34:14;5.20;;;2.53;;
75496;SDS011;64074;47.540;19.072;2023-02-04T15:37:17;3.53;;;1.40;;
75496;SDS011;64074;47.540;19.072;2023-02-04T15:40:21;4.20;;;1.40;;
75496;SDS011;64074;47.540;19.072;2023-02-04T15:43:23;3.13;;;1.30;;
75496;SDS011;64074;47.540;19.072;2023-02-04T15:46:26;3.55;;;1.52;;
75496;SDS011;64074;47.540;19.072;2023-02-04T15:49:30;4.68;;;1.77;;
75496;SDS011;64074;47.540;19.072;2023-02-04T15:52:33;3.17;;;1.40;;
75496;SDS011;64074;47.540;19.072;2023-02-04T15:55:37;6.53;;;1.90;;
75496;SDS011;64074;47.540;19.072;2023-02-04T15:58:40;4.63;;;1.70;;
75496;SDS011;64074;47.540;19.072;2023-02-04T16:01:43;4.20;;;2.05;;
75496;SDS011;64074;47.540;19.072;2023-02-04T16:04:46;4.40;;;1.75;;
75496;SDS011;64074;47.540;19.072;2023-02-04T16:07:50;7.67;;;2.50;;
75496;SDS011;64074;47.540;19.072;2023-02-04T16:10:53;4.07;;;1.67;;
75496;SDS011;64074;47.540;19.072;2023-02-04T16:13:56;4.28;;;1.60;;
75496;SDS011;64074;47.540;19.072;2023-02-04T16:16:59;4.40;;;1.80;;
75496;SDS011;64074;47.540;19.072;2023-02-04T16:20:05;4.95;;;1.90;;
75496;SDS011;64074;47.540;19.072;2023-02-04T16:23:09;3.40;;;1.23;;
75496;SDS011;64074;47.540;19.072;2023-02-04T16:26:12;4.23;;;1.90;;
75496;SDS011;64074;47.540;19.072;2023-02-04T16:29:14;2.85;;;1.58;;
75496;SDS011;64074;47.540;19.072;2023-02-04T16:32:18;2.75;;;1.23;;
75496;SDS011;64074;47.540;19.072;2023-02-04T16:35:21;2.42;;;1.23;;
75496;SDS011;64074;47.540;19.072;2023-02-04T16:38:25;2.07;;;0.97;;
75496;SDS011;64074;47.540;19.072;2023-02-04T16:41:28;2.10;;;1.20;;
75496;SDS011;64074;47.540;19.072;2023-02-04T16:44:31;4.53;;;1.30;;
75496;SDS011;64074;47.540;19.072;2023-02-04T16:47:34;2.63;;;1.02;;
75496;SDS011;64074;47.540;19.072;2023-02-04T16:50:37;2.58;;;1.10;;
75496;SDS011;64074;47.540;19.072;2023-02-04T16:53:40;4.73;;;1.00;;
75496;SDS011;64074;47.540;19.072;2023-02-04T16:56:43;3.73;;;1.50;;
75496;SDS011;64074;47.540;19.072;2023-02-04T16:59:46;4.35;;;1.50;;
75496;SDS011;64074;47.540;19.072;2023-02-04T17:02:49;4.30;;;1.10;;
75496;SDS011;64074;47.540;19.072;2023-02-04T17:05:52;2.65;;;1.20;;
75496;SDS011;64074;47.540;19.072;2023-02-04T17:08:55;3.17;;;0.80;;
75496;SDS011;64074;47.540;19.072;2023-02-04T17:11:59;4.07;;;1.40;;
75496;SDS011;64074;47.540;19.072;2023-02-04T17:15:02;4.07;;;1.17;;
75496;SDS011;64074;47.540;19.072;2023-02-04T17:18:05;2.80;;;1.10;;
75496;SDS011;64074;47.540;19.072;2023-02-04T17:21:08;3.10;;;0.98;;
75496;SDS011;64074;47.540;19.072;2023-02-04T17:24:11;4.20;;;1.27;;
75496;SDS011;64074;47.540;19.072;2023-02-04T17:27:14;2.13;;;0.73;;
75496;SDS011;64074;47.540;19.072;2023-02-04T17:30:18;4.53;;;1.80;;
75496;SDS011;64074;47.540;19.072;2023-02-04T17:33:22;5.88;;;1.48;;
75496;SDS011;64074;47.540;19.072;2023-02-04T17:36:25;3.85;;;1.23;;
75496;SDS011;64074;47.540;19.072;2023-02-04T17:39:29;3.40;;;1.27;;
75496;SDS011;64074;47.540;19.072;2023-02-04T17:42:33;4.37;;;1.60;;
75496;SDS011;64074;47.540;19.072;2023-02-04T17:45:36;2.10;;;0.88;;
75496;SDS011;64074;47.540;19.072;2023-02-04T17:48:40;2.92;;;1.17;;
75496;SDS011;64074;47.540;19.072;2023-02-04T17:51:43;2.55;;;1.20;;
75496;SDS011;64074;47.540;19.072;2023-02-04T17:54:46;2.63;;;1.20;;
75496;SDS011;64074;47.540;19.072;2023-02-04T17:57:50;3.33;;;1.10;;
75496;SDS011;64074;47.540;19.072;2023-02-04T18:00:54;2.85;;;1.30;;
75496;SDS011;64074;47.540;19.072;2023-02-04T18:03:59;2.88;;;1.13;;
75496;SDS011;64074;47.540;19.072;2023-02-04T18:07:04;3.40;;;1.33;;
75496;SDS011;64074;47.540;19.072;2023-02-04T18:10:17;2.93;;;1.23;;
75496;SDS011;64074;47.540;19.072;2023-02-04T18:13:32;3.07;;;1.20;;
75496;SDS011;64074;47.540;19.072;2023-02-04T18:16:36;2.25;;;1.02;;